Tropical Cyclones
[Index]
Main Index Home Page Stock Weather Photos Extreme Storms Discussion Storm News and Storm Chasing Reports Tropical Cyclones / Hurricanes / Typhoons Weather Data and Links Wild Fires / Bushfires Weather Observation Techniques Weather Picture Catalogue Tornado Pictures and Reports Stock Video Footage and DVDs for sale
Season 2006-2007 Tropical Cyclone INDLALA Track Map
Season 2006-2007 Summaries (Operational Data): [AU] [SIO] [SPAC] [SH]
<<- Previous TC | 2006-2007 Season | Next TC ->>

click for intensity scale information  Lat/long Grid: Show Hide

 Date Labels: Show Hide

Operational Tropical Cyclone Data : JTWC Advisories

Name: INDLALA
Number: 0719

10 Mar 2007 12:00 UTC to 17 Mar 2007 06:00 UTC

    date/time    lat    long     hPa   cat  kts
2007-03-10 12   14.9    61.8    1002         20          
2007-03-10 18   15.7    60.5                             
2007-03-11 00   15.4    59.3    1000         25          
2007-03-11 06   13.4    59.0     998         30          
2007-03-11 12   13.5    59.0     999         30          
2007-03-11 18   13.5    58.5     998         30          
2007-03-12 00   13.5    58.0     995    1    35          
2007-03-12 06   12.9    57.7     990    1    40          
2007-03-12 12   13.0    57.0     987    1    45          
2007-03-12 18   13.1    56.2     984    2    50          
2007-03-13 00   13.0    55.4     980    2    55          
2007-03-13 06   12.9    54.7     965    3    65          
2007-03-13 12   13.1    54.1     965    3    65          
2007-03-13 18   13.5    53.4     960    3    75          
2007-03-14 00   13.7    52.8     955    3    80          
2007-03-14 06   14.0    52.1     950    3    85          
2007-03-14 12   14.5    51.5     940    4    90          
2007-03-14 18   14.8    51.0     935    4    95          
2007-03-15 00   15.0    50.4     935    4    95          
2007-03-15 06   15.0    50.2     940    4    90          
2007-03-15 12   15.2    49.8     975    2    60          
2007-03-15 18   15.9    49.4     975    2    60          
2007-03-16 00   16.3    48.5                 30          
2007-03-16 06   16.1    47.6                 25          
2007-03-16 12   16.6    47.1                 25          
2007-03-16 18   17.0    47.3     995    1    35          
2007-03-17 00   17.5    47.5                 25          
2007-03-17 06   18.0    47.5                 20          
Winds are 10-min average.

Tropical cyclone tracks developed by Michael Bath using operational warnings and advisories and Google Maps.


[Australian Severe Weather index] [Copyright Notice] [Email Contacts] [Search This Site] [Privacy Policy]
Document: tropical_cyclone_indlala.htm Updated: 28 May 2013